Observations for BOLOGNA BORGO AFB, Italy (LIPE)

LIPE 191950Z VRB02KT CAVOK 17/13 Q1015  
LIPE 191920Z 18002KT CAVOK 19/14 Q1015  
LIPE 191850Z 14004KT 120V180 CAVOK 19/14 Q1015  
LIPE 191820Z 17004KT CAVOK 20/14 Q1015  
LIPE 191750Z 17004KT CAVOK 20/14 Q1015  
LIPE 191720Z 16006KT CAVOK 21/14 Q1015  
LIPE 191650Z 18005KT CAVOK 21/14 Q1014  
LIPE 191620Z 18007KT CAVOK 22/14 Q1014  
LIPE 191550Z 18009KT CAVOK 22/14 Q1014  
LIPE 191520Z 18010KT CAVOK 23/13 Q1014  
LIPE 191450Z 17007KT CAVOK 24/13 Q1014  
LIPE 191420Z 18008KT CAVOK 24/13 Q1014  
LIPE 191350Z 19010KT CAVOK 24/13 Q1014  
LIPE 191320Z 19009KT CAVOK 24/13 Q1014  
LIPE 191250Z 20012KT CAVOK 23/13 Q1014  
LIPE 191220Z 19013KT CAVOK 24/14 Q1014  
LIPE 191150Z 18010KT 150V210 9999 SCT070 23/14 Q1015
LIPE 191120Z 19010KT 150V210 9999 SCT070 23/14 Q1015
LIPE 191050Z 20012KT CAVOK 24/14 Q1015  
LIPE 191020Z 19010KT CAVOK 23/14 Q1015  
LIPE 190950Z 21007KT 180V260 CAVOK 23/14 Q1015  
LIPE 190920Z VRB02KT CAVOK 21/15 Q1015  
LIPE 190850Z 33003KT CAVOK 19/16 Q1015  
LIPE 190820Z VRB02KT CAVOK 19/15 Q1015  
LIPE 190750Z VRB02KT CAVOK 19/15 Q1015  
LIPE 190720Z VRB02KT CAVOK 18/14 Q1015  
LIPE 190650Z 12005KT CAVOK 15/14 Q1015  
LIPE 190620Z 13005KT CAVOK 12/12 Q1015  
LIPE 190550Z VRB01KT CAVOK 12/11 Q1015  
LIPE 190520Z VRB01KT CAVOK 11/11 Q1015  
LIPE 190450Z VRB01KT 9999 MIFG NSC 12/11 Q1015  
LIPE 190420Z VRB01KT CAVOK 11/11 Q1015  
LIPE 190350Z 13003KT CAVOK 11/11 Q1015  
LIPE 190320Z 24003KT CAVOK 12/11 Q1015  
LIPE 190250Z VRB01KT CAVOK 12/11 Q1015  
LIPE 190220Z 32004KT CAVOK 13/12 Q1016  
LIPE 190150Z VRB01KT CAVOK 13/12 Q1016  
LIPE 190120Z VRB01KT CAVOK 13/12 Q1016  
LIPE 190050Z 20003KT 160V220 CAVOK 14/12 Q1016  
LIPE 190020Z VRB02KT CAVOK 14/13 Q1016  
LIPE 182350Z 23003KT 180V280 CAVOK 15/13 Q1016  
LIPE 182320Z VRB02KT CAVOK 15/13 Q1016  
LIPE 182250Z VRB02KT 9999 BKN060 15/13 Q1016
LIPE 182220Z 22002KT 9999 SCT060 15/13 Q1016
LIPE 182150Z 23004KT 9999 SCT060 15/13 Q1017
LIPE 182120Z 24004KT 190V250 CAVOK 15/13 Q1017  
LIPE 182050Z 24006KT CAVOK 15/13 Q1017  
LIPE 182020Z 24004KT CAVOK 15/13 Q1017  
LIPE 181950Z 27005KT CAVOK 15/13 Q1017  
LIPE 181920Z 24004KT CAVOK 16/13 Q1017